Time;durP1;ratioP1;P1;durP2;ratioP2;P2;SDS_P1;SDS_P2;PMS_P1;PMS_P2;Temp;Humidity;BMP_temperature;BMP_pressure;BME280_temperature;BME280_humidity;BME280_pressure;Samples;Min_cycle;Max_cycle;Signal;HPM_P1;HPM_P2
2023/09/24 00:01:13;;;;;;;6.80;5.70;;;12.20;99.90;;;;;;5080862;28;20177;-74
2023/09/24 00:03:39;;;;;;;9.47;5.70;;;12.20;99.90;;;;;;5072804;28;20888;-74
2023/09/24 00:06:08;;;;;;;8.43;6.20;;;12.10;99.90;;;;;;5072261;28;20937;-74
2023/09/24 00:08:33;;;;;;;9.20;6.07;;;12.10;99.90;;;;;;5092468;28;20924;-74
2023/09/24 00:10:59;;;;;;;7.67;5.47;;;12.00;99.90;;;;;;5092613;28;20483;-74
2023/09/24 00:13:25;;;;;;;9.87;4.90;;;12.00;99.90;;;;;;5092584;28;20168;-73
2023/09/24 00:15:51;;;;;;;7.60;4.20;;;11.90;99.90;;;;;;5092242;28;20240;-74
2023/09/24 00:18:20;;;;;;;4.43;3.73;;;11.90;99.90;;;;;;5085380;28;20173;-74
2023/09/24 00:20:46;;;;;;;8.13;4.53;;;11.80;99.90;;;;;;5091927;28;20442;-74
2023/09/24 00:23:14;;;;;;;8.67;3.57;;;11.80;99.90;;;;;;5077096;28;20852;-74
2023/09/24 00:25:40;;;;;;;5.70;4.13;;;11.80;99.90;;;;;;5071812;28;20424;-73
2023/09/24 00:28:07;;;;;;;6.77;3.87;;;11.70;99.90;;;;;;5072194;28;20449;-74
2023/09/24 00:30:34;;;;;;;10.00;2.70;;;11.70;99.90;;;;;;5071994;28;20205;-74
2023/09/24 00:33:00;;;;;;;7.70;3.57;;;11.60;99.90;;;;;;5072021;28;20908;-74
2023/09/24 00:35:26;;;;;;;4.13;3.03;;;11.60;99.90;;;;;;5053395;28;20518;-74
2023/09/24 00:37:51;;;;;;;4.00;2.77;;;11.50;99.90;;;;;;5054135;28;20466;-73
2023/09/24 00:40:18;;;;;;;5.20;2.67;;;11.50;99.90;;;;;;5053851;28;20420;-74
2023/09/24 00:42:43;;;;;;;4.20;3.20;;;11.50;99.90;;;;;;5053999;28;20174;-74
2023/09/24 00:45:11;;;;;;;5.30;3.37;;;11.40;99.90;;;;;;5071743;28;20774;-74
2023/09/24 00:47:42;;;;;;;4.70;3.77;;;11.40;99.90;;;;;;5071835;28;20193;-74
2023/09/24 00:50:09;;;;;;;3.50;3.20;;;11.40;99.90;;;;;;5077191;28;20447;-74
2023/09/24 00:52:35;;;;;;;4.30;3.40;;;11.40;99.90;;;;;;5078610;28;20487;-74
2023/09/24 00:55:04;;;;;;;3.80;2.80;;;11.30;99.90;;;;;;5084799;28;20945;-74
2023/09/24 00:57:32;;;;;;;3.70;3.13;;;11.30;99.90;;;;;;5091926;28;20527;-74
2023/09/24 00:59:59;;;;;;;3.73;3.00;;;11.20;99.90;;;;;;5092154;28;20914;-74
2023/09/24 01:02:24;;;;;;;5.70;3.57;;;11.20;99.90;;;;;;5091986;28;20404;-73
2023/09/24 01:04:53;;;;;;;5.83;3.77;;;11.20;99.90;;;;;;5093947;28;20830;-74
2023/09/24 01:07:21;;;;;;;2.53;2.03;;;11.20;99.90;;;;;;5096198;28;20399;-74
2023/09/24 01:09:48;;;;;;;4.43;2.27;;;11.10;99.90;;;;;;5095907;28;20455;-74
2023/09/24 01:12:25;;;;;;;4.43;2.70;;;11.10;99.90;;;;;;5096002;28;20418;-74
2023/09/24 01:14:53;;;;;;;5.30;2.93;;;11.10;99.90;;;;;;5095779;28;20415;-73
2023/09/24 01:17:20;;;;;;;4.03;2.40;;;11.00;99.90;;;;;;5093080;28;20426;-74
2023/09/24 01:19:46;;;;;;;3.77;2.33;;;11.00;99.90;;;;;;5075204;28;20423;-74
2023/09/24 01:22:12;;;;;;;3.97;2.43;;;11.00;99.90;;;;;;5089223;28;21017;-74
2023/09/24 01:24:37;;;;;;;9.13;2.80;;;11.00;99.90;;;;;;5075413;28;20664;-74
2023/09/24 01:27:03;;;;;;;3.57;2.87;;;11.00;99.90;;;;;;5075404;28;20175;-74
2023/09/24 01:29:28;;;;;;;4.37;2.50;;;10.90;99.90;;;;;;5075410;28;20186;-74
2023/09/24 01:31:54;;;;;;;2.90;2.57;;;10.90;99.90;;;;;;5075423;28;20197;-74
2023/09/24 01:34:20;;;;;;;3.03;1.87;;;10.90;99.90;;;;;;5075368;28;20244;-74
2023/09/24 01:36:45;;;;;;;2.47;2.10;;;10.80;99.90;;;;;;5075142;28;20411;-74
2023/09/24 01:39:17;;;;;;;2.67;2.40;;;10.80;99.90;;;;;;5075248;28;20166;-74
2023/09/24 01:41:43;;;;;;;4.23;1.90;;;10.80;99.90;;;;;;5057667;28;20419;-74
2023/09/24 01:44:08;;;;;;;2.40;1.80;;;10.80;99.90;;;;;;5075070;28;20401;-74
2023/09/24 01:46:34;;;;;;;3.13;2.13;;;10.70;99.90;;;;;;5057086;28;20173;-74
2023/09/24 01:49:01;;;;;;;6.23;2.47;;;10.70;99.90;;;;;;5075191;28;20159;-74
2023/09/24 01:51:26;;;;;;;5.60;2.73;;;10.70;99.90;;;;;;5057137;28;20174;-75
2023/09/24 01:53:52;;;;;;;5.43;2.37;;;10.70;99.90;;;;;;5074845;28;20416;-74
2023/09/24 01:56:18;;;;;;;4.27;1.80;;;10.70;99.90;;;;;;5074834;28;20217;-74
2023/09/24 01:58:44;;;;;;;2.70;2.17;;;10.60;99.90;;;;;;5074918;28;20253;-74
2023/09/24 02:01:11;;;;;;;2.30;2.10;;;10.60;99.90;;;;;;5074848;28;20416;-74
2023/09/24 02:03:37;;;;;;;2.30;1.67;;;10.60;99.90;;;;;;5056938;28;20503;-74
2023/09/24 02:06:05;;;;;;;3.00;1.93;;;10.60;99.90;;;;;;5074750;28;20503;-74
2023/09/24 02:08:31;;;;;;;1.97;1.57;;;10.60;99.90;;;;;;5074589;28;20162;-74
2023/09/24 02:10:57;;;;;;;4.10;1.80;;;10.50;99.90;;;;;;5074643;28;20509;-74
2023/09/24 02:13:23;;;;;;;1.40;1.30;;;10.50;99.90;;;;;;5074623;28;20170;-74
2023/09/24 02:15:48;;;;;;;3.13;1.80;;;10.50;99.90;;;;;;5073316;28;20424;-74
2023/09/24 02:18:15;;;;;;;2.53;1.80;;;10.50;99.90;;;;;;5080599;28;20181;-74
2023/09/24 02:20:42;;;;;;;2.60;1.90;;;10.40;99.90;;;;;;5074578;28;20185;-74
2023/09/24 02:23:08;;;;;;;2.43;1.70;;;10.40;99.90;;;;;;5080836;28;20423;-74
2023/09/24 02:25:37;;;;;;;2.03;1.43;;;10.40;99.90;;;;;;5056160;28;20448;-74
2023/09/24 02:28:03;;;;;;;3.53;1.70;;;10.30;99.90;;;;;;5074333;28;20413;-74
2023/09/24 02:30:30;;;;;;;3.83;2.13;;;10.40;99.90;;;;;;5074197;28;20444;-74
2023/09/24 02:32:57;;;;;;;1.53;1.13;;;10.40;99.90;;;;;;5074276;28;20466;-74
2023/09/24 02:35:23;;;;;;;2.37;1.30;;;10.40;99.90;;;;;;5073981;28;20460;-74
2023/09/24 02:37:50;;;;;;;2.27;1.60;;;10.40;99.90;;;;;;5074317;28;20471;-74
2023/09/24 02:40:23;;;;;;;4.27;1.87;;;10.30;99.90;;;;;;5074231;28;20170;-74
2023/09/24 02:42:58;;;;;;;1.57;1.47;;;10.30;99.90;;;;;;5074182;28;20401;-74
2023/09/24 02:45:26;;;;;;;2.23;1.60;;;10.30;99.90;;;;;;5073754;28;20432;-74
2023/09/24 02:47:52;;;;;;;2.30;1.97;;;10.30;99.90;;;;;;5074083;28;20417;-74
2023/09/24 02:50:23;;;;;;;2.67;1.67;;;10.30;99.90;;;;;;5056041;28;20808;-74
2023/09/24 02:52:53;;;;;;;1.40;1.30;;;10.20;99.90;;;;;;5073921;28;20534;-74
2023/09/24 02:55:19;;;;;;;2.90;1.67;;;10.20;99.90;;;;;;5073634;28;20429;-74
2023/09/24 02:57:52;;;;;;;2.60;2.17;;;10.10;99.90;;;;;;5073892;28;20986;-74
2023/09/24 03:00:26;;;;;;;2.97;1.90;;;10.20;99.90;;;;;;5073823;28;20452;-74
2023/09/24 03:02:53;;;;;;;1.60;1.50;;;10.20;99.90;;;;;;5072494;28;20409;-73
2023/09/24 03:05:20;;;;;;;3.00;1.80;;;10.20;99.90;;;;;;5073511;28;20999;-73
2023/09/24 03:07:50;;;;;;;3.07;1.70;;;10.10;99.90;;;;;;5073911;28;20887;-74
2023/09/24 03:10:16;;;;;;;2.30;1.63;;;10.10;99.90;;;;;;5073458;28;20966;-73
2023/09/24 03:12:46;;;;;;;1.97;1.67;;;10.10;99.90;;;;;;5073533;28;20433;-73
2023/09/24 03:15:12;;;;;;;1.57;1.40;;;10.20;99.90;;;;;;5073182;28;20182;-73
2023/09/24 03:17:39;;;;;;;3.80;1.63;;;10.20;99.90;;;;;;5075243;28;20424;-74
2023/09/24 03:20:19;;;;;;;4.90;2.03;;;10.20;99.90;;;;;;5061289;28;20423;-74
2023/09/24 03:22:48;;;;;;;1.97;1.50;;;10.20;99.90;;;;;;5073148;28;20451;-74
2023/09/24 03:25:17;;;;;;;1.20;1.10;;;10.20;99.90;;;;;;5073115;28;20435;-73
2023/09/24 03:27:43;;;;;;;3.30;2.10;;;10.20;99.90;;;;;;5072995;28;20518;-74
2023/09/24 03:30:10;;;;;;;3.10;1.30;;;10.10;99.90;;;;;;5072952;28;20459;-74
2023/09/24 03:32:39;;;;;;;1.27;1.13;;;10.10;99.90;;;;;;5073192;28;20401;-73
2023/09/24 03:35:08;;;;;;;2.10;1.70;;;10.10;99.90;;;;;;5071539;28;20432;-73
2023/09/24 03:37:34;;;;;;;1.43;1.33;;;10.10;99.90;;;;;;5073067;28;20867;-73
2023/09/24 03:40:00;;;;;;;4.93;1.87;;;10.00;99.90;;;;;;5055164;28;20492;-73
2023/09/24 03:42:26;;;;;;;2.80;2.10;;;9.90;99.90;;;;;;5055014;28;20413;-73
2023/09/24 03:44:51;;;;;;;3.83;2.10;;;9.80;99.90;;;;;;5072708;28;20436;-73
2023/09/24 03:47:17;;;;;;;1.60;1.33;;;9.90;99.90;;;;;;5072773;28;20166;-73
2023/09/24 03:49:43;;;;;;;2.07;1.30;;;9.80;99.90;;;;;;5072690;28;20714;-73
2023/09/24 03:52:10;;;;;;;2.63;1.60;;;9.90;99.90;;;;;;5072805;28;20166;-73
2023/09/24 03:54:38;;;;;;;4.07;2.10;;;9.90;99.90;;;;;;5072495;28;20252;-73
2023/09/24 03:57:05;;;;;;;1.77;1.40;;;9.80;99.90;;;;;;5072482;28;20405;-73
2023/09/24 03:59:40;;;;;;;3.07;1.70;;;9.80;99.90;;;;;;5054612;28;20409;-73
2023/09/24 04:02:07;;;;;;;4.77;2.30;;;9.70;99.90;;;;;;5072591;28;20408;-73
2023/09/24 04:04:35;;;;;;;2.30;1.47;;;9.80;99.90;;;;;;5054400;28;20943;-73
2023/09/24 04:07:02;;;;;;;2.03;1.40;;;9.80;99.90;;;;;;5072259;28;20491;-73
2023/09/24 04:09:32;;;;;;;2.07;1.27;;;9.80;99.90;;;;;;5068335;28;20550;-73
2023/09/24 04:12:01;;;;;;;1.37;1.20;;;9.80;99.90;;;;;;5081502;28;20404;-73
2023/09/24 04:14:27;;;;;;;6.33;2.00;;;9.80;99.90;;;;;;5084857;28;20638;-73
2023/09/24 04:16:55;;;;;;;1.80;1.40;;;9.70;99.90;;;;;;5071974;28;20921;-73
2023/09/24 04:19:21;;;;;;;3.10;1.50;;;9.70;99.90;;;;;;5068601;28;20510;-73
2023/09/24 04:21:46;;;;;;;5.60;1.57;;;9.70;99.90;;;;;;5080264;28;20456;-73
2023/09/24 04:24:13;;;;;;;1.37;1.23;;;9.70;99.90;;;;;;5072052;28;20182;-73
2023/09/24 04:26:39;;;;;;;3.00;1.70;;;9.60;99.90;;;;;;5071966;28;20667;-73
2023/09/24 04:29:05;;;;;;;1.33;1.23;;;9.50;99.90;;;;;;5072052;28;20903;-73
2023/09/24 04:31:31;;;;;;;3.87;1.70;;;9.50;99.90;;;;;;5072069;28;20554;-73
2023/09/24 04:33:56;;;;;;;2.80;1.60;;;9.50;99.90;;;;;;5071935;28;20538;-73
2023/09/24 04:36:22;;;;;;;3.17;1.53;;;9.50;99.90;;;;;;5071981;28;20175;-73
2023/09/24 04:38:47;;;;;;;2.63;1.60;;;9.50;99.90;;;;;;5071675;28;20170;-73
2023/09/24 04:41:15;;;;;;;1.50;1.23;;;9.60;99.90;;;;;;5072011;28;20193;-73
2023/09/24 04:43:42;;;;;;;3.33;1.67;;;9.60;99.90;;;;;;5071829;28;20197;-73
2023/09/24 04:46:08;;;;;;;2.40;1.97;;;9.60;99.90;;;;;;5071610;28;20964;-73
2023/09/24 04:48:35;;;;;;;2.13;1.50;;;9.60;99.90;;;;;;5053811;28;20499;-73
2023/09/24 04:51:01;;;;;;;1.77;1.40;;;9.60;99.90;;;;;;5071840;28;20458;-73
2023/09/24 04:53:27;;;;;;;2.73;1.53;;;9.60;99.90;;;;;;5053652;28;20427;-73
2023/09/24 04:55:52;;;;;;;4.00;1.60;;;9.60;99.90;;;;;;5071524;28;20969;-73
2023/09/24 04:58:18;;;;;;;2.40;1.50;;;9.50;99.90;;;;;;5071798;28;20162;-74
2023/09/24 05:00:43;;;;;;;1.67;1.47;;;9.50;99.90;;;;;;5071824;28;20166;-73
2023/09/24 05:03:09;;;;;;;2.50;1.67;;;9.50;99.90;;;;;;5053733;28;20714;-74
2023/09/24 05:05:34;;;;;;;2.00;1.23;;;9.40;99.90;;;;;;5071695;28;20217;-74
2023/09/24 05:08:02;;;;;;;5.43;1.70;;;9.50;99.90;;;;;;5071763;28;20201;-74
2023/09/24 05:10:28;;;;;;;1.83;1.03;;;9.40;99.90;;;;;;5071692;28;20654;-74
2023/09/24 05:12:53;;;;;;;3.37;1.53;;;9.40;99.90;;;;;;5071696;28;20539;-74
2023/09/24 05:15:19;;;;;;;5.63;3.03;;;9.40;99.90;;;;;;5071231;28;20197;-74
2023/09/24 05:17:44;;;;;;;3.93;2.27;;;9.30;99.90;;;;;;5071528;28;20182;-74
2023/09/24 05:20:10;;;;;;;3.47;2.03;;;9.30;99.90;;;;;;5086387;28;20170;-74
2023/09/24 05:22:36;;;;;;;4.30;1.80;;;9.30;99.90;;;;;;5091317;28;20176;-74
2023/09/24 05:25:02;;;;;;;1.70;1.60;;;9.30;99.90;;;;;;5082988;28;20435;-74
2023/09/24 05:27:29;;;;;;;2.03;1.80;;;9.30;99.90;;;;;;5073623;28;20230;-74
2023/09/24 05:29:55;;;;;;;2.10;1.50;;;9.40;99.90;;;;;;5083144;28;20199;-74
2023/09/24 05:32:20;;;;;;;2.60;1.50;;;9.40;99.90;;;;;;5076793;28;20838;-74
2023/09/24 05:34:52;;;;;;;9.80;1.90;;;9.40;99.90;;;;;;5071286;28;20539;-74
2023/09/24 05:37:17;;;;;;;1.80;1.60;;;9.40;99.90;;;;;;5071288;28;20167;-74
2023/09/24 05:39:43;;;;;;;3.27;1.73;;;9.40;99.90;;;;;;5068292;28;20428;-74
2023/09/24 05:42:09;;;;;;;2.80;1.90;;;9.40;99.90;;;;;;5045691;28;20220;-74
2023/09/24 05:44:34;;;;;;;2.90;1.73;;;9.30;99.90;;;;;;5078133;28;20596;-74
2023/09/24 05:47:00;;;;;;;5.20;2.00;;;9.20;99.90;;;;;;5079656;28;20367;-74
2023/09/24 05:49:26;;;;;;;3.87;2.03;;;9.30;99.90;;;;;;5071192;28;20163;-74
2023/09/24 05:51:51;;;;;;;3.03;2.00;;;9.30;99.90;;;;;;5073156;28;20158;-74
2023/09/24 05:54:17;;;;;;;1.57;1.47;;;9.40;99.90;;;;;;5073697;28;20968;-74
2023/09/24 05:56:43;;;;;;;2.00;1.80;;;9.50;99.90;;;;;;5083045;28;20644;-75
2023/09/24 05:59:08;;;;;;;5.33;3.03;;;9.50;99.90;;;;;;5074905;28;20162;-74
2023/09/24 06:01:34;;;;;;;2.90;1.83;;;9.60;99.90;;;;;;5074873;28;20228;-74
2023/09/24 06:03:59;;;;;;;3.53;2.20;;;9.70;99.90;;;;;;5073535;28;20174;-74
2023/09/24 06:06:25;;;;;;;1.53;1.43;;;9.70;99.90;;;;;;5074650;28;20173;-74
2023/09/24 06:08:53;;;;;;;2.17;1.90;;;9.80;99.90;;;;;;5071790;28;20171;-74
2023/09/24 06:11:19;;;;;;;6.93;2.23;;;9.90;99.90;;;;;;5074624;28;20549;-74
2023/09/24 06:13:44;;;;;;;3.40;2.00;;;9.90;99.90;;;;;;5074582;28;20412;-74
2023/09/24 06:16:10;;;;;;;2.10;1.80;;;10.00;99.90;;;;;;5074427;28;20183;-74
2023/09/24 06:18:35;;;;;;;3.03;2.10;;;10.00;99.90;;;;;;5077172;28;20170;-74
2023/09/24 06:21:02;;;;;;;4.40;1.70;;;10.10;99.90;;;;;;5082655;28;20166;-74
2023/09/24 06:23:28;;;;;;;4.17;3.13;;;10.10;99.90;;;;;;5059554;28;20185;-74
2023/09/24 06:25:58;;;;;;;2.23;1.53;;;10.10;99.90;;;;;;5069171;28;20435;-74
2023/09/24 06:28:24;;;;;;;3.30;1.50;;;10.20;99.90;;;;;;5079939;28;20166;-74
2023/09/24 06:31:03;;;;;;;4.23;1.80;;;10.30;99.90;;;;;;5082395;28;20454;-74
2023/09/24 06:33:29;;;;;;;2.10;1.83;;;10.50;99.90;;;;;;5074775;28;20403;-74
2023/09/24 06:35:55;;;;;;;2.63;2.43;;;10.70;99.90;;;;;;5074428;28;20785;-74
2023/09/24 06:38:20;;;;;;;5.10;2.47;;;10.70;99.90;;;;;;5074929;28;20501;-75
2023/09/24 06:40:46;;;;;;;8.03;2.20;;;10.70;99.90;;;;;;5074490;28;20960;-75
2023/09/24 06:43:11;;;;;;;3.73;2.30;;;10.80;99.90;;;;;;5056616;28;20206;-75
2023/09/24 06:45:37;;;;;;;1.90;1.70;;;10.90;99.90;;;;;;5074305;28;20265;-75
2023/09/24 06:48:03;;;;;;;2.63;2.10;;;10.90;99.90;;;;;;5074429;28;20166;-74
2023/09/24 06:50:28;;;;;;;4.37;2.13;;;11.00;99.90;;;;;;5074364;28;20186;-74
2023/09/24 06:52:54;;;;;;;7.07;2.87;;;11.10;99.90;;;;;;5074271;28;20575;-74
2023/09/24 06:55:19;;;;;;;5.80;2.13;;;11.20;99.90;;;;;;5073726;28;20182;-74
2023/09/24 06:57:45;;;;;;;9.53;5.00;;;11.20;99.90;;;;;;5074007;28;20241;-74
2023/09/24 07:00:11;;;;;;;6.73;4.23;;;11.40;99.90;;;;;;5073937;28;20193;-74
2023/09/24 07:02:37;;;;;;;3.10;2.77;;;11.50;99.90;;;;;;5073364;28;20170;-74
2023/09/24 07:05:05;;;;;;;3.03;2.83;;;11.60;99.90;;;;;;5073445;28;20456;-74
2023/09/24 07:07:30;;;;;;;4.60;2.07;;;11.70;99.90;;;;;;5072450;28;20421;-74
2023/09/24 07:09:56;;;;;;;5.30;2.83;;;11.90;99.90;;;;;;5073504;28;20448;-74
2023/09/24 07:12:22;;;;;;;3.20;2.10;;;12.00;99.90;;;;;;5073505;28;20642;-74
2023/09/24 07:14:47;;;;;;;5.57;2.27;;;12.20;99.90;;;;;;5073405;28;20182;-74
2023/09/24 07:17:15;;;;;;;2.97;2.17;;;12.40;99.90;;;;;;5069704;28;20417;-74
2023/09/24 07:19:40;;;;;;;8.60;1.93;;;12.60;99.90;;;;;;5074947;28;20232;-76
2023/09/24 07:22:06;;;;;;;2.57;2.37;;;12.70;99.90;;;;;;5072611;28;20408;-74
2023/09/24 07:24:31;;;;;;;4.77;2.30;;;12.90;99.90;;;;;;5079465;28;20181;-74
2023/09/24 07:27:02;;;;;;;2.10;1.90;;;13.10;99.90;;;;;;5068650;28;20182;-74
2023/09/24 07:29:29;;;;;;;4.60;3.87;;;13.40;99.90;;;;;;5077052;28;20570;-74
2023/09/24 07:31:54;;;;;;;4.37;3.20;;;13.60;99.90;;;;;;5081313;28;20403;-74
2023/09/24 07:34:20;;;;;;;9.10;1.93;;;13.70;99.90;;;;;;5093264;28;20427;-74
2023/09/24 07:36:45;;;;;;;2.23;1.93;;;13.80;99.90;;;;;;5093227;28;20192;-74
2023/09/24 07:39:11;;;;;;;2.90;2.13;;;13.90;99.90;;;;;;5072379;28;20575;-74
2023/09/24 07:41:37;;;;;;;2.57;1.63;;;14.00;99.90;;;;;;5084562;28;20177;-74
2023/09/24 07:44:02;;;;;;;2.17;1.60;;;14.40;99.90;;;;;;5084281;28;20178;-74
2023/09/24 07:46:28;;;;;;;2.63;1.97;;;14.80;99.90;;;;;;5093005;28;20169;-74
2023/09/24 07:48:53;;;;;;;2.60;1.63;;;15.00;99.90;;;;;;5093170;28;20201;-74
2023/09/24 07:51:19;;;;;;;1.67;1.53;;;15.00;99.90;;;;;;5093218;28;20682;-75
2023/09/24 07:53:46;;;;;;;2.70;1.90;;;15.10;99.90;;;;;;5092646;28;20695;-74
2023/09/24 07:56:11;;;;;;;1.87;1.77;;;15.10;99.90;;;;;;5079734;28;20193;-73
2023/09/24 07:58:41;;;;;;;3.67;1.90;;;15.20;99.90;;;;;;5068791;28;20770;-73
2023/09/24 08:01:09;;;;;;;3.57;2.23;;;15.20;99.90;;;;;;5054472;28;20289;-73
2023/09/24 08:03:36;;;;;;;2.93;1.70;;;15.30;99.90;;;;;;5072367;28;20503;-73
2023/09/24 08:06:02;;;;;;;2.20;1.37;;;15.40;99.90;;;;;;5071968;28;20943;-73
2023/09/24 08:08:29;;;;;;;2.17;1.50;;;15.90;99.90;;;;;;5072096;28;20447;-74
2023/09/24 08:10:56;;;;;;;3.30;2.53;;;16.30;99.90;;;;;;5072212;28;20820;-74
2023/09/24 08:13:22;;;;;;;2.90;1.87;;;16.90;99.90;;;;;;5071748;28;20948;-74
2023/09/24 08:15:48;;;;;;;4.60;1.80;;;17.40;99.90;;;;;;5053728;28;20425;-74
2023/09/24 08:18:15;;;;;;;2.73;1.50;;;18.10;99.90;;;;;;5070660;28;20478;-74
2023/09/24 08:20:41;;;;;;;1.97;1.50;;;18.90;99.90;;;;;;5072057;28;20420;-74
2023/09/24 08:23:06;;;;;;;1.73;1.30;;;19.80;99.90;;;;;;5071865;28;20405;-74
2023/09/24 08:25:32;;;;;;;2.73;1.37;;;21.90;99.90;;;;;;5053760;28;20198;-71
2023/09/24 08:27:58;;;;;;;1.93;1.13;;;24.80;99.90;;;;;;5071970;28;20174;-72
2023/09/24 08:30:26;;;;;;;2.10;1.27;;;27.40;94.60;;;;;;5065638;28;20456;-72
2023/09/24 08:32:52;;;;;;;2.27;1.70;;;30.20;73.80;;;;;;5072788;28;20178;-73
2023/09/24 08:35:17;;;;;;;4.10;1.47;;;32.40;55.60;;;;;;5087289;28;20440;-73
2023/09/24 08:37:44;;;;;;;2.87;1.40;;;34.10;48.70;;;;;;5053843;28;20185;-73
2023/09/24 08:40:11;;;;;;;7.33;4.07;;;35.00;42.70;;;;;;5057672;28;20177;-73
2023/09/24 08:42:37;;;;;;;2.57;1.70;;;36.80;41.60;;;;;;5051344;28;22105;-73
2023/09/24 08:45:14;;;;;;;1.77;1.17;;;38.00;35.90;;;;;;5038573;28;21039;-73
2023/09/24 08:47:44;;;;;;;2.90;1.40;;;39.60;35.60;;;;;;5071612;28;20235;-73
2023/09/24 08:50:09;;;;;;;1.97;1.50;;;40.60;32.80;;;;;;5071620;28;21167;-73
2023/09/24 08:52:40;;;;;;;1.80;1.60;;;41.30;30.60;;;;;;5071629;28;20496;-73
2023/09/24 08:55:11;;;;;;;2.00;1.80;;;42.20;29.40;;;;;;5082370;28;20217;-73
2023/09/24 08:57:39;;;;;;;2.50;1.50;;;42.90;28.60;;;;;;5090160;28;20407;-74
2023/09/24 09:00:06;;;;;;;1.87;1.70;;;44.40;29.40;;;;;;5071093;28;20891;-74
2023/09/24 09:02:34;;;;;;;2.33;1.90;;;45.50;27.30;;;;;;5071396;28;20765;-74
2023/09/24 09:05:03;;;;;;;1.63;1.53;;;46.30;26.60;;;;;;5079639;28;20535;-74
2023/09/24 09:07:29;;;;;;;3.50;2.00;;;47.00;25.90;;;;;;5071692;28;20934;-74
2023/09/24 09:09:56;;;;;;;3.07;1.60;;;47.50;25.50;;;;;;5053686;28;20456;-74
2023/09/24 09:12:24;;;;;;;2.00;1.80;;;47.50;23.50;;;;;;5071695;28;20166;-74
2023/09/24 09:14:50;;;;;;;2.37;2.17;;;47.70;24.10;;;;;;5071583;28;20420;-74
2023/09/24 09:17:16;;;;;;;2.43;1.60;;;47.90;23.60;;;;;;5071403;28;20411;-74
2023/09/24 09:19:52;;;;;;;2.33;2.13;;;47.80;23.20;;;;;;5066607;28;20456;-74
2023/09/24 09:22:25;;;;;;;1.90;1.70;;;48.40;23.40;;;;;;5076160;28;20496;-74
2023/09/24 09:25:07;;;;;;;2.07;1.60;;;48.40;22.50;;;;;;5092145;28;20419;-74
2023/09/24 09:27:43;;;;;;;2.80;1.70;;;48.50;22.60;;;;;;5095741;28;20432;-74
2023/09/24 09:30:16;;;;;;;2.20;2.00;;;48.10;21.30;;;;;;5077337;28;20487;-74
2023/09/24 09:32:43;;;;;;;4.17;2.10;;;47.90;22.00;;;;;;5083917;28;20475;-74
2023/09/24 09:35:10;;;;;;;2.37;2.10;;;48.40;22.00;;;;;;5074305;28;20410;-74
2023/09/24 09:37:38;;;;;;;2.57;1.73;;;48.10;21.30;;;;;;5075165;28;20783;-74
2023/09/24 09:40:04;;;;;;;2.00;1.43;;;48.50;22.40;;;;;;5074865;28;20494;-74
2023/09/24 09:42:36;;;;;;;2.10;1.90;;;48.20;21.00;;;;;;5057154;28;20386;-74
2023/09/24 09:45:09;;;;;;;3.07;2.27;;;47.70;21.00;;;;;;5075120;28;20494;-73
2023/09/24 09:47:55;;;;;;;3.20;2.90;;;48.00;21.30;;;;;;5075194;28;20390;-75
2023/09/24 09:50:24;;;;;;;1.70;1.60;;;48.60;22.20;;;;;;5056919;28;20811;-74
2023/09/24 09:52:54;;;;;;;2.50;2.17;;;49.00;21.40;;;;;;5074987;28;20364;-74
2023/09/24 09:55:20;;;;;;;2.57;1.93;;;48.70;21.10;;;;;;5074774;28;20421;-74
2023/09/24 09:57:47;;;;;;;3.50;2.57;;;49.60;22.00;;;;;;5075055;28;20378;-74
2023/09/24 10:00:16;;;;;;;2.27;1.93;;;50.70;21.80;;;;;;5074980;28;20174;-74
2023/09/24 10:02:47;;;;;;;2.17;1.90;;;51.60;21.50;;;;;;5075021;28;20862;-74
2023/09/24 10:05:14;;;;;;;3.53;2.60;;;51.30;20.00;;;;;;5074856;28;20410;-74
2023/09/24 10:07:40;;;;;;;2.50;2.33;;;50.90;20.50;;;;;;5074906;28;20734;-74
2023/09/24 10:10:31;;;;;;;2.27;2.00;;;50.20;19.50;;;;;;5074627;28;20525;-73
2023/09/24 10:13:02;;;;;;;12.03;3.87;;;50.60;20.00;;;;;;5074762;28;20403;-73
2023/09/24 10:15:30;;;;;;;2.23;1.73;;;51.30;20.40;;;;;;5074640;28;20409;-73
2023/09/24 10:18:14;;;;;;;2.00;1.80;;;51.80;20.00;;;;;;5072642;28;20432;-73
2023/09/24 10:20:49;;;;;;;1.93;1.83;;;51.30;19.20;;;;;;5086083;28;20422;-73
2023/09/24 10:23:30;;;;;;;5.50;2.70;;;51.90;19.70;;;;;;5074606;28;20417;-73
2023/09/24 10:26:00;;;;;;;3.47;2.43;;;51.50;18.40;;;;;;5083216;28;20522;-73
2023/09/24 10:28:50;;;;;;;3.50;1.90;;;51.60;18.50;;;;;;5077532;28;20926;-74
2023/09/24 10:31:24;;;;;;;2.80;2.60;;;51.00;18.40;;;;;;5072522;28;20464;-73
2023/09/24 10:33:57;;;;;;;2.50;1.80;;;51.40;19.00;;;;;;5077971;28;20401;-73
2023/09/24 10:36:34;;;;;;;2.90;2.10;;;51.00;18.20;;;;;;5078843;28;20902;-73
2023/09/24 10:39:20;;;;;;;2.33;2.13;;;51.40;18.50;;;;;;5094554;28;20857;-73
2023/09/24 10:42:13;;;;;;;4.03;2.70;;;51.10;18.30;;;;;;5093924;28;20420;-73
2023/09/24 10:44:39;;;;;;;3.10;2.17;;;50.40;18.50;;;;;;5094238;28;20415;-74
2023/09/24 10:47:24;;;;;;;2.37;2.10;;;51.10;19.30;;;;;;5094276;28;20786;-74
2023/09/24 10:50:05;;;;;;;2.37;2.27;;;51.60;18.90;;;;;;5094258;28;20656;-74
2023/09/24 10:52:59;;;;;;;2.17;1.97;;;52.10;18.30;;;;;;5094231;28;20375;-74
2023/09/24 10:55:28;;;;;;;1.83;1.73;;;51.90;17.90;;;;;;5093949;28;20428;-74
2023/09/24 10:57:56;;;;;;;3.10;1.90;;;51.40;17.90;;;;;;5094016;28;20366;-74
2023/09/24 11:00:22;;;;;;;4.00;2.20;;;51.40;17.50;;;;;;5093980;28;20498;-74
2023/09/24 11:02:56;;;;;;;2.80;2.00;;;49.80;17.40;;;;;;5094005;28;20410;-74
2023/09/24 11:05:22;;;;;;;4.03;2.13;;;46.70;17.80;;;;;;5093633;28;20448;-73
2023/09/24 11:07:48;;;;;;;1.77;1.40;;;45.10;18.90;;;;;;5093950;28;20382;-73
2023/09/24 11:10:20;;;;;;;1.50;1.40;;;45.00;20.10;;;;;;5093909;28;20223;-74
2023/09/24 11:12:52;;;;;;;2.47;1.87;;;46.10;20.60;;;;;;5093830;28;20196;-74
2023/09/24 11:15:19;;;;;;;2.13;1.87;;;46.50;19.20;;;;;;5093598;28;20417;-74
2023/09/24 11:17:46;;;;;;;2.33;1.90;;;47.80;19.60;;;;;;5093669;28;20406;-74
2023/09/24 11:20:12;;;;;;;1.50;1.40;;;49.10;19.80;;;;;;5066928;28;20447;-74
2023/09/24 11:22:38;;;;;;;1.77;1.67;;;49.10;18.40;;;;;;5079009;28;20383;-74
2023/09/24 11:25:12;;;;;;;1.93;1.70;;;50.00;18.50;;;;;;5073733;28;20407;-74
2023/09/24 11:27:49;;;;;;;1.80;1.70;;;50.90;17.60;;;;;;5078973;28;20775;-74
2023/09/24 11:30:17;;;;;;;1.60;1.50;;;51.30;17.10;;;;;;5073236;28;20841;-74
2023/09/24 11:32:46;;;;;;;2.30;1.97;;;51.30;16.90;;;;;;5073076;28;20886;-74
2023/09/24 11:35:14;;;;;;;1.80;1.70;;;51.10;16.60;;;;;;5072853;28;20908;-74
2023/09/24 11:37:53;;;;;;;2.10;1.90;;;51.50;17.10;;;;;;5055203;28;20402;-74
2023/09/24 11:40:31;;;;;;;2.40;2.30;;;50.20;15.30;;;;;;5076358;28;20386;-74
2023/09/24 11:43:12;;;;;;;3.07;2.10;;;48.50;15.80;;;;;;5076073;28;20891;-74
2023/09/24 11:45:46;;;;;;;1.60;1.50;;;48.80;17.00;;;;;;5072575;28;20907;-74
2023/09/24 11:48:32;;;;;;;1.60;1.50;;;49.10;16.90;;;;;;5072315;28;20411;-74
2023/09/24 11:51:01;;;;;;;3.80;3.57;;;49.10;17.10;;;;;;5072221;28;20423;-74
2023/09/24 11:53:27;;;;;;;2.70;2.50;;;49.60;17.60;;;;;;5072547;28;20395;-73
2023/09/24 11:55:58;;;;;;;1.60;1.50;;;50.20;17.40;;;;;;5072567;28;20394;-74
2023/09/24 11:58:27;;;;;;;1.97;1.63;;;49.40;16.40;;;;;;5072783;28;20409;-74
2023/09/24 12:00:54;;;;;;;1.70;1.60;;;48.60;16.30;;;;;;5076936;28;20418;-73
2023/09/24 12:03:22;;;;;;;1.60;1.50;;;49.10;17.40;;;;;;5072645;28;20402;-73
2023/09/24 12:05:48;;;;;;;2.80;2.60;;;49.80;17.50;;;;;;5072297;28;20410;-74
2023/09/24 12:08:14;;;;;;;3.33;3.03;;;49.60;16.90;;;;;;5072544;28;20379;-73
2023/09/24 12:10:42;;;;;;;3.07;2.77;;;50.10;17.10;;;;;;5068051;28;20210;-72
2023/09/24 12:13:11;;;;;;;8.33;7.73;;;50.20;16.70;;;;;;5066834;28;20181;-72
2023/09/24 12:15:37;;;;;;;2.17;1.70;;;50.60;16.50;;;;;;5071817;28;20510;-74
2023/09/24 12:18:04;;;;;;;1.43;1.30;;;48.80;15.80;;;;;;5073035;28;20384;-74
2023/09/24 12:20:39;;;;;;;1.40;1.30;;;48.10;16.30;;;;;;5080371;28;20421;-72
2023/09/24 12:23:06;;;;;;;1.77;1.50;;;47.70;15.90;;;;;;5072790;28;20792;-74
2023/09/24 12:25:34;;;;;;;3.33;1.70;;;47.00;16.40;;;;;;5074768;28;20406;-73
2023/09/24 12:28:00;;;;;;;3.23;1.80;;;46.50;16.80;;;;;;5065917;28;20796;-73
2023/09/24 12:30:26;;;;;;;9.27;8.50;;;46.50;17.20;;;;;;5092313;28;20418;-73
2023/09/24 12:32:51;;;;;;;3.07;2.87;;;46.20;17.40;;;;;;5092067;28;20549;-73
2023/09/24 12:35:17;;;;;;;3.27;1.73;;;47.10;18.10;;;;;;5080763;28;20190;-73
2023/09/24 12:37:43;;;;;;;2.60;1.83;;;47.20;17.60;;;;;;5072062;28;20710;-73
2023/09/24 12:40:10;;;;;;;1.63;1.53;;;47.20;18.00;;;;;;5053997;28;20244;-72
2023/09/24 12:42:40;;;;;;;2.90;1.67;;;47.20;17.40;;;;;;5071978;28;20170;-73
2023/09/24 12:45:08;;;;;;;15.93;14.53;;;47.40;17.80;;;;;;5071777;28;20424;-73
2023/09/24 12:47:34;;;;;;;2.30;2.10;;;48.20;17.80;;;;;;5071852;28;20733;-73
2023/09/24 12:50:01;;;;;;;9.40;8.43;;;48.40;17.20;;;;;;5065802;28;20530;-72
2023/09/24 12:52:39;;;;;;;15.90;13.73;;;48.50;17.40;;;;;;5071571;28;20158;-73